Time;durP1;ratioP1;P1;durP2;ratioP2;P2;SDS_P1;SDS_P2;PMS_P1;PMS_P2;Temp;Humidity;BMP_temperature;BMP_pressure;BME280_temperature;BME280_humidity;BME280_pressure;Samples;Min_cycle;Max_cycle;Signal;HPM_P1;HPM_P2
2022/05/21 00:00:33;;;;;;;0.00;0.00;;;;;;;17.30;50.60;99331.34;5029634;28;20101;-82
2022/05/21 00:02:59;;;;;;;0.10;0.10;;;;;;;17.27;51.04;99331.94;5029881;28;20404;-82
2022/05/21 00:05:28;;;;;;;0.10;0.10;;;;;;;17.24;50.53;99336.06;5029820;28;20094;-82
2022/05/21 00:07:54;;;;;;;0.05;0.05;;;;;;;17.25;50.43;99328.78;5029733;28;20083;-82
2022/05/21 00:10:22;;;;;;;0.05;0.05;;;;;;;16.97;50.61;99326.28;5029854;28;20497;-82
2022/05/21 00:12:47;;;;;;;0.10;0.10;;;;;;;16.97;50.93;99331.69;5029415;28;20033;-82
2022/05/21 00:15:17;;;;;;;0.00;0.00;;;;;;;16.97;50.48;99326.28;5029404;28;20034;-82
2022/05/21 00:17:43;;;;;;;0.10;0.10;;;;;;;16.94;50.46;99325.00;5029284;28;20021;-82
2022/05/21 00:20:47;;;;;;;0.10;0.10;;;;;;;16.91;50.45;99319.41;5029572;28;20034;-80
2022/05/21 00:22:56;;;;;;;0.10;0.10;;;;;;;16.91;50.67;99316.69;5030495;28;20044;-82
2022/05/21 00:25:22;;;;;;;0.10;0.10;;;;;;;16.90;50.45;99317.81;5029555;28;20068;-80
2022/05/21 00:27:48;;;;;;;0.10;0.10;;;;;;;16.91;50.12;99317.50;5031042;28;20068;-80
2022/05/21 00:30:14;;;;;;;0.05;0.05;;;;;;;16.95;51.25;99325.78;5029594;28;20033;-80
2022/05/21 00:32:40;;;;;;;0.00;0.00;;;;;;;16.94;51.79;99324.19;5029273;28;20033;-80
2022/05/21 00:35:07;;;;;;;0.10;0.10;;;;;;;16.93;52.11;99319.91;5029346;28;20513;-80
2022/05/21 00:37:32;;;;;;;0.10;0.10;;;;;;;16.95;52.24;99323.09;5029152;28;20017;-80
2022/05/21 00:39:58;;;;;;;0.00;0.00;;;;;;;16.93;52.40;99326.13;5029665;28;20111;-80
2022/05/21 00:42:23;;;;;;;0.10;0.10;;;;;;;16.93;52.29;99325.31;5029458;28;20083;-80
2022/05/21 00:44:48;;;;;;;0.10;0.10;;;;;;;17.07;51.58;99328.69;5030779;28;20140;-80
2022/05/21 00:47:14;;;;;;;0.10;0.10;;;;;;;17.10;51.12;99330.78;5030889;28;20029;-80
2022/05/21 00:49:40;;;;;;;0.03;0.03;;;;;;;17.06;50.98;99327.09;5029700;28;20033;-80
2022/05/21 00:52:17;;;;;;;0.00;0.00;;;;;;;17.07;51.23;99327.91;5033130;28;20485;-80
2022/05/21 00:54:52;;;;;;;0.10;0.10;;;;;;;16.96;51.86;99333.59;5032819;28;20061;-80
2022/05/21 00:57:17;;;;;;;0.00;0.00;;;;;;;16.91;51.66;99330.22;5033004;28;20420;-80
2022/05/21 00:59:51;;;;;;;0.10;0.10;;;;;;;16.89;51.68;99338.59;5032727;28;20025;-80
2022/05/21 01:02:39;;;;;;;0.10;0.10;;;;;;;16.89;52.53;99332.41;5032882;28;20496;-79
2022/05/21 01:05:10;;;;;;;0.00;0.00;;;;;;;16.87;52.92;99334.63;5032980;28;20068;-80
2022/05/21 01:07:41;;;;;;;0.00;0.00;;;;;;;16.84;52.87;99336.03;5032595;28;20045;-80
2022/05/21 01:10:08;;;;;;;0.10;0.10;;;;;;;16.84;53.11;99336.03;5032691;28;20091;-80
2022/05/21 01:12:40;;;;;;;0.00;0.00;;;;;;;16.77;53.51;99339.19;5033610;28;20029;-80
2022/05/21 01:15:18;;;;;;;0.10;0.10;;;;;;;16.78;53.33;99342.69;5032924;28;20052;-80
2022/05/21 01:17:44;;;;;;;;;;;;;;;16.77;53.62;99343.78;5032909;28;20033;-80
2022/05/21 01:20:15;;;;;;;0.00;0.00;;;;;;;16.71;53.91;99335.03;5032723;28;19935;-80
2022/05/21 01:22:46;;;;;;;0.10;0.10;;;;;;;16.72;54.01;99333.94;5032380;28;20032;-81
2022/05/21 01:25:14;;;;;;;0.00;0.00;;;;;;;16.73;53.84;99335.50;5032519;28;20025;-80
2022/05/21 01:27:41;;;;;;;0.00;0.00;;;;;;;16.70;53.62;99330.75;5032157;28;20044;-80
2022/05/21 01:30:09;;;;;;;0.00;0.00;;;;;;;16.65;53.90;99328.97;5032363;28;20033;-80
2022/05/21 01:32:35;;;;;;;0.00;0.00;;;;;;;16.63;53.40;99324.97;5032010;28;20060;-80
2022/05/21 01:35:00;;;;;;;0.08;0.08;;;;;;;16.57;53.93;99329.72;5032127;28;20449;-80
2022/05/21 01:37:26;;;;;;;0.10;0.10;;;;;;;16.55;54.09;99321.13;5032131;28;20048;-80
2022/05/21 01:39:52;;;;;;;0.10;0.10;;;;;;;16.52;54.18;99310.16;5032050;28;20026;-80
2022/05/21 01:42:18;;;;;;;0.10;0.10;;;;;;;16.44;54.92;99304.41;5032316;28;20476;-80
2022/05/21 01:44:46;;;;;;;0.00;0.00;;;;;;;16.39;54.94;99312.59;5032084;28;20052;-80
2022/05/21 01:47:14;;;;;;;0.00;0.00;;;;;;;16.32;55.31;99315.75;5032142;28;20030;-80
2022/05/21 01:49:41;;;;;;;0.00;0.00;;;;;;;16.29;54.94;99307.47;5031812;28;20041;-80
2022/05/21 01:52:08;;;;;;;0.10;0.10;;;;;;;16.26;54.92;99314.28;5031994;28;20021;-81
2022/05/21 01:54:34;;;;;;;0.00;0.00;;;;;;;16.20;54.85;99306.59;5033380;28;20033;-81
2022/05/21 01:57:01;;;;;;;0.08;0.08;;;;;;;16.11;55.05;99304.66;5031940;28;20017;-80
2022/05/21 01:59:27;;;;;;;0.00;0.00;;;;;;;16.05;54.79;99305.88;5031950;28;20088;-81
2022/05/21 02:01:53;;;;;;;0.00;0.00;;;;;;;15.95;55.18;99301.53;5032134;28;20022;-81
2022/05/21 02:04:19;;;;;;;0.00;0.00;;;;;;;15.90;55.07;99300.84;5031815;28;20025;-80
2022/05/21 02:06:45;;;;;;;0.00;0.00;;;;;;;15.83;54.91;99302.06;5031345;28;20025;-80
2022/05/21 02:09:11;;;;;;;0.03;0.03;;;;;;;15.78;54.95;99306.72;5031780;28;20033;-80
2022/05/21 02:11:38;;;;;;;0.00;0.00;;;;;;;15.68;55.03;99300.47;5031361;28;20025;-80
2022/05/21 02:14:04;;;;;;;0.05;0.05;;;;;;;15.63;55.17;99303.28;5031625;28;20033;-80
2022/05/21 02:16:31;;;;;;;0.03;0.03;;;;;;;15.55;55.16;99303.19;5031418;28;20059;-81
2022/05/21 02:18:57;;;;;;;0.00;0.00;;;;;;;15.48;55.15;99296.31;5030948;28;20033;-80
2022/05/21 02:21:23;;;;;;;0.17;0.17;;;;;;;15.41;55.35;99290.53;5031491;28;20511;-81
2022/05/21 02:23:48;;;;;;;0.00;0.00;;;;;;;15.36;54.99;99285.25;5031353;28;20056;-81
2022/05/21 02:26:16;;;;;;;0.10;0.10;;;;;;;15.29;55.20;99287.56;5031522;28;20499;-81
2022/05/21 02:28:42;;;;;;;0.10;0.10;;;;;;;15.24;54.94;99291.16;5031249;28;20116;-81
2022/05/21 02:31:07;;;;;;;0.10;0.10;;;;;;;15.17;55.55;99288.06;5031205;28;20680;-81
2022/05/21 02:33:33;;;;;;;0.00;0.00;;;;;;;15.13;56.01;99287.09;5031252;28;20191;-81
2022/05/21 02:35:58;;;;;;;0.10;0.10;;;;;;;15.11;55.61;99281.19;5030560;28;20429;-81
2022/05/21 02:41:12;;;;;;;0.10;0.10;;;;;;;14.99;55.99;99274.41;5032353;28;20040;-81
2022/05/21 02:43:38;;;;;;;0.00;0.00;;;;;;;14.99;55.96;99287.06;5030812;28;20060;-81
2022/05/21 02:46:03;;;;;;;0.00;0.00;;;;;;;14.99;56.11;99295.97;5030973;28;20118;-82
2022/05/21 02:48:29;;;;;;;0.00;0.00;;;;;;;14.99;56.38;99290.56;5030970;28;20052;-82
2022/05/21 02:50:55;;;;;;;0.00;0.00;;;;;;;14.98;56.05;99293.56;5030662;28;20516;-82
2022/05/21 02:53:21;;;;;;;0.10;0.10;;;;;;;14.94;56.01;99289.88;5030860;28;20392;-81
2022/05/21 02:55:47;;;;;;;0.00;0.00;;;;;;;14.90;56.11;99284.28;5030526;28;20120;-81
2022/05/21 02:58:14;;;;;;;0.00;0.00;;;;;;;14.81;56.48;99281.47;5032279;28;20040;-81
2022/05/21 03:00:42;;;;;;;0.00;0.00;;;;;;;14.80;56.35;99279.09;5030472;28;20087;-81
2022/05/21 03:03:07;;;;;;;0.00;0.00;;;;;;;14.76;56.43;99286.16;5030714;28;20025;-82
2022/05/21 03:05:33;;;;;;;0.00;0.00;;;;;;;14.75;56.59;99285.38;5030717;28;20416;-81
2022/05/21 03:08:00;;;;;;;0.00;0.00;;;;;;;14.76;56.50;99283.47;5030339;28;20470;-81
2022/05/21 03:10:28;;;;;;;0.00;0.00;;;;;;;14.75;56.33;99288.06;5030702;28;20033;-82
2022/05/21 03:12:55;;;;;;;;;;;;;;;14.77;56.20;99290.44;5030359;28;20485;-81
2022/05/21 03:15:28;;;;;;;0.00;0.00;;;;;;;14.73;56.34;99296.44;5030130;28;19909;-81
2022/05/21 03:17:54;;;;;;;0.10;0.10;;;;;;;14.76;56.49;99292.34;5031419;28;20029;-82
2022/05/21 03:20:21;;;;;;;0.10;0.10;;;;;;;14.83;56.54;99283.88;5030451;28;20395;-82
2022/05/21 03:22:47;;;;;;;0.00;0.00;;;;;;;15.04;56.78;99284.28;5030304;28;20103;-82
2022/05/21 03:25:14;;;;;;;0.00;0.00;;;;;;;15.43;56.14;99279.44;5030625;28;20102;-82
2022/05/21 03:27:40;;;;;;;0.00;0.00;;;;;;;15.94;55.41;99288.31;5030325;28;20029;-81
2022/05/21 03:30:10;;;;;;;0.00;0.00;;;;;;;16.51;54.07;99289.66;5030454;28;20018;-82
2022/05/21 03:32:36;;;;;;;0.08;0.08;;;;;;;17.15;52.39;99281.22;5030118;28;20025;-82
2022/05/21 03:35:02;;;;;;;0.00;0.00;;;;;;;17.83;50.94;99275.41;5029900;28;20057;-82
2022/05/21 03:37:27;;;;;;;0.10;0.10;;;;;;;18.48;49.35;99274.69;5030115;28;20025;-82
2022/05/21 03:39:53;;;;;;;0.55;0.55;;;;;;;19.13;47.27;99282.75;5029995;28;20079;-82
2022/05/21 03:42:19;;;;;;;0.10;0.10;;;;;;;19.66;45.80;99270.44;5030053;28;20026;-82
2022/05/21 03:44:46;;;;;;;0.10;0.10;;;;;;;20.29;43.73;99276.94;5029915;28;20120;-81
2022/05/21 03:47:12;;;;;;;0.10;0.10;;;;;;;20.78;42.58;99273.53;5031331;28;20036;-82
2022/05/21 03:49:38;;;;;;;0.08;0.08;;;;;;;21.32;42.02;99274.41;5029989;28;20128;-82
2022/05/21 03:52:03;;;;;;;0.08;0.08;;;;;;;21.93;40.38;99270.75;5029964;28;20133;-82
2022/05/21 03:54:29;;;;;;;0.10;0.10;;;;;;;22.58;39.67;99272.47;5029925;28;20485;-83
2022/05/21 03:56:55;;;;;;;0.10;0.10;;;;;;;23.21;38.48;99275.53;5029502;28;20489;-82
2022/05/21 03:59:20;;;;;;;0.10;0.10;;;;;;;23.75;36.96;99266.53;5029818;28;20032;-82
2022/05/21 04:01:46;;;;;;;0.10;0.10;;;;;;;24.27;35.65;99261.69;5029854;28;20057;-83
2022/05/21 04:04:11;;;;;;;0.00;0.00;;;;;;;24.83;34.86;99270.47;5029908;28;20025;-82
2022/05/21 04:06:37;;;;;;;0.10;0.10;;;;;;;25.15;34.47;99275.63;5029766;28;20107;-82
2022/05/21 04:09:03;;;;;;;0.00;0.00;;;;;;;25.50;33.36;99273.78;5029611;28;20412;-82
2022/05/21 04:11:28;;;;;;;0.00;0.00;;;;;;;25.83;32.65;99272.22;5031066;28;20396;-82
2022/05/21 04:13:54;;;;;;;0.10;0.10;;;;;;;26.12;32.39;99276.13;5029316;28;20034;-80
2022/05/21 04:16:20;;;;;;;0.10;0.10;;;;;;;26.24;31.74;99269.56;5029629;28;20029;-81
2022/05/21 04:18:45;;;;;;;0.00;0.00;;;;;;;26.55;31.24;99266.72;5029529;28;20029;-81
2022/05/21 04:21:11;;;;;;;0.00;0.00;;;;;;;26.89;30.75;99272.09;5029605;28;20091;-80
2022/05/21 04:23:36;;;;;;;0.00;0.00;;;;;;;27.25;30.08;99273.13;5029618;28;20064;-80
2022/05/21 04:26:02;;;;;;;0.00;0.00;;;;;;;27.56;29.32;99273.72;5032098;28;20033;-80
2022/05/21 04:28:27;;;;;;;0.00;0.00;;;;;;;27.95;28.79;99269.50;5033406;28;20022;-80
2022/05/21 04:30:53;;;;;;;0.00;0.00;;;;;;;28.30;28.29;99270.78;5033207;28;20025;-83
2022/05/21 04:33:18;;;;;;;0.00;0.00;;;;;;;28.44;27.78;99275.50;5034658;28;20037;-80
2022/05/21 04:38:27;;;;;;;0.00;0.00;;;;;;;28.99;27.69;99270.81;5034767;28;20037;-80
2022/05/21 04:40:53;;;;;;;0.00;0.00;;;;;;;29.24;27.49;99271.53;5032855;28;20473;-82
2022/05/21 04:43:18;;;;;;;0.00;0.00;;;;;;;29.47;27.55;99275.84;5033273;28;20033;-81
2022/05/21 04:45:44;;;;;;;0.00;0.00;;;;;;;29.69;27.04;99273.78;5033636;28;20465;-82
2022/05/21 04:48:10;;;;;;;0.00;0.00;;;;;;;29.80;26.36;99262.72;5032867;28;20022;-82
2022/05/21 04:50:37;;;;;;;0.00;0.00;;;;;;;30.01;26.36;99263.81;5034434;28;20065;-83
2022/05/21 04:53:03;;;;;;;0.00;0.00;;;;;;;30.20;26.30;99262.53;5032964;28;20068;-84
2022/05/21 04:55:28;;;;;;;0.00;0.00;;;;;;;30.33;26.70;99258.09;5033094;28;20465;-83
2022/05/21 04:57:54;;;;;;;0.00;0.00;;;;;;;30.61;26.18;99261.06;5032650;28;20022;-85
2022/05/21 05:00:19;;;;;;;0.00;0.00;;;;;;;30.68;26.04;99261.00;5032960;28;20464;-85
2022/05/21 05:02:45;;;;;;;0.00;0.00;;;;;;;30.86;26.23;99251.75;5033021;28;20030;-84
2022/05/21 05:05:10;;;;;;;0.00;0.00;;;;;;;31.06;25.98;99247.22;5032800;28;20029;-84
2022/05/21 05:07:38;;;;;;;0.00;0.00;;;;;;;31.22;26.30;99248.66;5032808;28;20025;-84
2022/05/21 05:10:04;;;;;;;0.00;0.00;;;;;;;31.38;26.11;99242.56;5032609;28;20029;-84
2022/05/21 05:12:31;;;;;;;0.00;0.00;;;;;;;31.54;26.33;99242.75;5032636;28;20523;-85
2022/05/21 05:14:57;;;;;;;0.00;0.00;;;;;;;31.65;26.18;99258.44;5032046;28;20132;-84
2022/05/21 05:17:24;;;;;;;0.00;0.00;;;;;;;31.80;26.16;99250.72;5032413;28;20167;-84
2022/05/21 05:19:50;;;;;;;0.00;0.00;;;;;;;31.87;26.13;99259.72;5032394;28;20036;-84
2022/05/21 05:22:15;;;;;;;0.00;0.00;;;;;;;31.75;26.18;99258.31;5032398;28;20030;-84
2022/05/21 05:24:41;;;;;;;0.00;0.00;;;;;;;31.74;25.97;99253.19;5033888;28;20390;-84
2022/05/21 05:27:07;;;;;;;0.15;0.15;;;;;;;31.71;26.24;99259.53;5032063;28;20582;-84
2022/05/21 05:29:33;;;;;;;0.00;0.00;;;;;;;31.69;25.81;99254.44;5032980;28;20026;-84
2022/05/21 05:31:58;;;;;;;0.00;0.00;;;;;;;31.43;24.31;99266.97;5032107;28;20018;-84
2022/05/21 05:34:24;;;;;;;0.00;0.00;;;;;;;31.51;24.55;99262.91;5032201;28;20476;-84
2022/05/21 05:36:51;;;;;;;0.00;0.00;;;;;;;31.66;23.93;99265.53;5031365;28;20033;-83
2022/05/21 05:39:17;;;;;;;0.00;0.00;;;;;;;31.72;23.43;99267.41;5032826;28;20029;-83
2022/05/21 05:41:42;;;;;;;0.00;0.00;;;;;;;31.98;22.73;99267.06;5033822;28;20111;-83
2022/05/21 05:44:08;;;;;;;0.15;0.10;;;;;;;32.18;22.56;99267.19;5031940;28;20033;-83
2022/05/21 05:46:33;;;;;;;0.00;0.00;;;;;;;32.38;21.55;99262.53;5033449;28;20542;-83
2022/05/21 05:48:59;;;;;;;0.00;0.00;;;;;;;32.43;21.80;99266.06;5031749;28;20063;-84
2022/05/21 05:51:25;;;;;;;0.00;0.00;;;;;;;32.64;21.54;99259.38;5031733;28;20060;-84
2022/05/21 05:53:51;;;;;;;0.00;0.00;;;;;;;32.74;20.57;99261.19;5031694;28;20025;-84
2022/05/21 05:56:17;;;;;;;0.00;0.00;;;;;;;32.92;20.79;99260.88;5031909;28;20021;-84
2022/05/21 06:01:27;;;;;;;0.30;0.30;;;;;;;32.63;21.26;99257.78;5033153;28;20039;-85
2022/05/21 06:03:53;;;;;;;0.00;0.00;;;;;;;32.78;21.54;99261.16;5031549;28;20021;-84
2022/05/21 06:06:18;;;;;;;0.00;0.00;;;;;;;32.87;21.55;99258.59;5033600;28;20025;-84
2022/05/21 06:08:45;;;;;;;0.00;0.00;;;;;;;33.00;21.24;99250.47;5031772;28;20794;-85
2022/05/21 06:11:12;;;;;;;0.00;0.00;;;;;;;33.18;20.51;99245.34;5032492;28;20486;-84
2022/05/21 06:13:38;;;;;;;0.00;0.00;;;;;;;33.03;20.92;99252.38;5032822;28;20037;-84
2022/05/21 06:16:04;;;;;;;0.00;0.00;;;;;;;32.99;21.23;99248.88;5031586;28;20036;-84
2022/05/21 06:18:30;;;;;;;0.00;0.00;;;;;;;33.07;21.64;99241.22;5031591;28;20026;-84
2022/05/21 06:20:59;;;;;;;0.00;0.00;;;;;;;33.00;21.50;99253.22;5031169;28;20033;-84
2022/05/21 06:23:25;;;;;;;0.00;0.00;;;;;;;32.61;22.19;99249.91;5031373;28;20030;-85
2022/05/21 06:25:51;;;;;;;0.00;0.00;;;;;;;32.65;22.25;99250.63;5031051;28;20029;-83
2022/05/21 06:28:17;;;;;;;0.00;0.00;;;;;;;32.62;22.58;99254.25;5031429;28;20084;-83
2022/05/21 06:30:45;;;;;;;0.00;0.00;;;;;;;32.51;22.39;99251.66;5031455;28;20054;-82
2022/05/21 06:33:24;;;;;;;0.00;0.00;;;;;;;32.34;22.64;99249.97;5031115;28;20057;-85
2022/05/21 06:36:11;;;;;;;0.00;0.00;;;;;;;32.19;23.28;99252.94;5030924;28;20148;-85
2022/05/21 06:38:38;;;;;;;0.00;0.00;;;;;;;32.07;22.70;99248.75;5031423;28;20116;-83
2022/05/21 06:41:03;;;;;;;0.00;0.00;;;;;;;31.74;23.59;99253.19;5031135;28;20155;-85
2022/05/21 06:43:29;;;;;;;0.00;0.00;;;;;;;31.62;23.87;99246.97;5031146;28;20051;-85
2022/05/21 06:45:54;;;;;;;0.00;0.00;;;;;;;31.39;23.52;99253.19;5030956;28;20025;-85
2022/05/21 06:48:20;;;;;;;0.00;0.00;;;;;;;31.13;23.72;99241.63;5030774;28;20026;-85
2022/05/21 06:50:46;;;;;;;0.00;0.00;;;;;;;30.92;24.01;99236.31;5031155;28;20466;-85
2022/05/21 06:53:12;;;;;;;0.00;0.00;;;;;;;30.72;24.82;99234.13;5030783;28;20501;-85
2022/05/21 06:55:38;;;;;;;0.00;0.00;;;;;;;30.50;24.67;99236.31;5030858;28;20060;-85
2022/05/21 06:58:04;;;;;;;0.00;0.00;;;;;;;30.27;25.11;99237.66;5030406;28;20118;-85
2022/05/21 07:00:29;;;;;;;0.35;0.20;;;;;;;30.21;25.00;99230.97;5031194;28;20068;-85
2022/05/21 07:02:55;;;;;;;0.00;0.00;;;;;;;30.00;25.66;99231.91;5030576;28;20159;-86
2022/05/21 07:08:13;;;;;;;0.10;0.10;;;;;;;29.28;25.41;99224.72;5031879;28;20056;-85
2022/05/21 07:10:39;;;;;;;0.00;0.00;;;;;;;29.05;25.43;99217.72;5030468;28;20477;-85
2022/05/21 07:13:04;;;;;;;0.00;0.00;;;;;;;28.50;25.88;99224.44;5030227;28;20036;-85
2022/05/21 07:15:30;;;;;;;0.00;0.00;;;;;;;28.01;26.34;99225.94;5030606;28;20064;-84
2022/05/21 07:18:00;;;;;;;0.00;0.00;;;;;;;27.60;27.67;99214.06;5030310;28;20080;-84
2022/05/21 07:20:26;;;;;;;0.00;0.00;;;;;;;27.41;28.05;99215.16;5030462;28;20048;-85
2022/05/21 07:22:52;;;;;;;0.00;0.00;;;;;;;27.25;29.44;99214.69;5032288;28;20481;-85
2022/05/21 07:25:23;;;;;;;0.00;0.00;;;;;;;27.16;29.28;99213.06;5030301;28;20036;-84
2022/05/21 07:27:49;;;;;;;0.00;0.00;;;;;;;26.95;29.53;99213.75;5030446;28;20034;-85
2022/05/21 07:30:15;;;;;;;0.00;0.00;;;;;;;26.83;29.45;99214.84;5030188;28;20037;-84
2022/05/21 07:32:41;;;;;;;0.05;0.05;;;;;;;26.72;29.74;99202.19;5030578;28;20075;-84
2022/05/21 07:35:12;;;;;;;0.00;0.00;;;;;;;26.53;30.26;99209.50;5030041;28;20053;-84
2022/05/21 07:37:39;;;;;;;0.43;0.28;;;;;;;26.28;30.70;99209.28;5030223;28;20079;-85
2022/05/21 07:40:06;;;;;;;0.00;0.00;;;;;;;26.27;31.30;99202.22;5030721;28;20029;-84
2022/05/21 07:42:32;;;;;;;0.00;0.00;;;;;;;26.31;30.89;99201.09;5033005;28;20033;-84
2022/05/21 07:44:58;;;;;;;0.30;0.30;;;;;;;26.41;30.91;99205.09;5044557;28;20072;-85
2022/05/21 07:47:24;;;;;;;0.10;0.10;;;;;;;26.41;30.52;99191.38;5049339;28;20021;-84
2022/05/21 07:49:56;;;;;;;0.08;0.08;;;;;;;26.47;30.33;99187.13;5049827;28;20026;-85
2022/05/21 07:52:27;;;;;;;0.00;0.00;;;;;;;26.40;29.59;99180.81;5045906;28;20071;-84
2022/05/21 07:54:52;;;;;;;0.88;0.52;;;;;;;26.25;29.77;99175.19;5048151;28;20057;-83
2022/05/21 07:57:18;;;;;;;0.00;0.00;;;;;;;26.14;29.71;99174.34;5047890;28;20033;-84
2022/05/21 07:59:43;;;;;;;0.25;0.25;;;;;;;26.04;30.03;99173.81;5048354;28;20412;-83
2022/05/21 08:02:17;;;;;;;0.00;0.00;;;;;;;26.04;30.99;99175.78;5044302;28;20041;-83
2022/05/21 08:04:44;;;;;;;0.00;0.00;;;;;;;26.13;29.94;99170.78;5034893;28;20022;-85
2022/05/21 08:07:10;;;;;;;0.00;0.00;;;;;;;26.14;29.21;99166.88;5029598;28;20239;-84
2022/05/21 08:09:36;;;;;;;0.10;0.10;;;;;;;26.14;29.71;99158.66;5029815;28;20124;-83
2022/05/21 08:12:02;;;;;;;0.00;0.00;;;;;;;26.17;29.57;99152.44;5030225;28;20179;-83
2022/05/21 08:14:28;;;;;;;0.00;0.00;;;;;;;26.17;29.15;99151.63;5030031;28;20025;-83
2022/05/21 08:16:53;;;;;;;0.00;0.00;;;;;;;26.24;29.06;99146.22;5029685;28;20033;-83
2022/05/21 08:19:19;;;;;;;0.00;0.00;;;;;;;26.36;29.51;99140.44;5029664;28;20082;-83
2022/05/21 08:21:44;;;;;;;0.00;0.00;;;;;;;26.41;29.10;99131.06;5029890;28;20481;-83
2022/05/21 08:26:56;;;;;;;0.00;0.00;;;;;;;26.52;28.91;99128.41;5031268;28;20045;-83
2022/05/21 08:29:31;;;;;;;0.00;0.00;;;;;;;26.50;29.31;99117.00;5029403;28;20039;-82
2022/05/21 08:31:57;;;;;;;0.00;0.00;;;;;;;26.52;28.95;99104.53;5029510;28;20072;-83
2022/05/21 08:34:23;;;;;;;0.00;0.00;;;;;;;26.48;29.28;99100.19;5028966;28;20065;-83
2022/05/21 08:36:49;;;;;;;0.00;0.00;;;;;;;26.48;28.70;99102.91;5029357;28;20030;-82
2022/05/21 08:39:16;;;;;;;0.00;0.00;;;;;;;26.48;29.41;99094.69;5029254;28;20493;-84
2022/05/21 08:42:09;;;;;;;0.00;0.00;;;;;;;26.55;29.79;99099.41;5029377;28;20072;-83
2022/05/21 08:44:46;;;;;;;0.00;0.00;;;;;;;26.64;29.36;99102.63;5029309;28;20021;-83
2022/05/21 08:47:27;;;;;;;0.00;0.00;;;;;;;26.77;29.49;99092.91;5029315;28;20025;-83
2022/05/21 08:50:02;;;;;;;0.00;0.00;;;;;;;26.90;28.89;99095.31;5029509;28;20030;-83
2022/05/21 08:52:37;;;;;;;0.00;0.00;;;;;;;27.03;29.17;99091.06;5029527;28;20040;-83
2022/05/21 08:55:08;;;;;;;0.10;0.10;;;;;;;27.17;28.60;99091.13;5029044;28;20026;-83
2022/05/21 08:57:42;;;;;;;0.00;0.00;;;;;;;27.13;27.67;99084.81;5029408;28;20128;-81
2022/05/21 09:00:18;;;;;;;0.00;0.00;;;;;;;27.11;28.38;99067.16;5029056;28;20025;-83
2022/05/21 09:02:43;;;;;;;0.00;0.00;;;;;;;27.10;28.89;99071.06;5029359;28;20033;-83
2022/05/21 09:05:12;;;;;;;0.00;0.00;;;;;;;27.08;29.09;99062.47;5028930;28;20493;-84
2022/05/21 09:07:51;;;;;;;0.00;0.00;;;;;;;27.05;29.44;99065.97;5029325;28;20041;-83
2022/05/21 09:10:22;;;;;;;0.00;0.00;;;;;;;27.07;29.82;99074.63;5028917;28;20029;-83
2022/05/21 09:13:16;;;;;;;0.03;0.03;;;;;;;27.05;30.07;99075.00;5031376;28;20029;-83
2022/05/21 09:18:29;;;;;;;0.00;0.00;;;;;;;27.00;29.95;99067.13;5034033;28;20408;-83
2022/05/21 09:21:01;;;;;;;0.00;0.00;;;;;;;27.03;30.09;99058.13;5032551;28;20168;-81
2022/05/21 09:23:48;;;;;;;0.00;0.00;;;;;;;27.07;30.60;99036.97;5032591;28;20033;-80
2022/05/21 09:26:14;;;;;;;0.05;0.05;;;;;;;27.16;30.78;99044.84;5032530;28;20036;-82
2022/05/21 09:28:39;;;;;;;0.00;0.00;;;;;;;27.16;30.54;99039.38;5032458;28;20088;-82
2022/05/21 09:31:07;;;;;;;0.10;0.10;;;;;;;27.17;29.58;99038.97;5032266;28;20122;-83
2022/05/21 09:33:38;;;;;;;0.00;0.00;;;;;;;27.19;29.98;99038.56;5032297;28;20030;-84
2022/05/21 09:36:05;;;;;;;0.00;0.00;;;;;;;27.26;30.33;99035.06;5031535;28;20083;-84
2022/05/21 09:38:33;;;;;;;0.05;0.05;;;;;;;27.36;30.09;99039.00;5032296;28;20386;-83
2022/05/21 09:41:23;;;;;;;0.38;0.32;;;;;;;27.36;28.79;99023.31;5032196;28;20025;-84
2022/05/21 09:46:41;;;;;;;0.00;0.00;;;;;;;27.40;30.20;99031.53;5033270;28;20405;-84
2022/05/21 09:49:24;;;;;;;0.00;0.00;;;;;;;27.41;29.86;99030.41;5031808;28;20041;-84
2022/05/21 09:52:00;;;;;;;0.00;0.00;;;;;;;27.40;29.07;99032.31;5032213;28;20037;-84
2022/05/21 09:54:40;;;;;;;0.10;0.10;;;;;;;27.43;28.97;99025.31;5031645;28;20026;-83
2022/05/21 09:57:20;;;;;;;0.03;0.03;;;;;;;27.39;29.95;99024.47;5031646;28;20067;-83
2022/05/21 10:00:09;;;;;;;0.15;0.10;;;;;;;27.37;28.16;99024.06;5033384;28;20374;-83
2022/05/21 10:02:43;;;;;;;0.00;0.00;;;;;;;27.37;27.99;99010.34;5031920;28;20024;-83
2022/05/21 10:05:12;;;;;;;0.00;0.00;;;;;;;27.42;26.60;99004.53;5031568;28;20402;-83
2022/05/21 10:10:59;;;;;;;0.00;0.00;;;;;;;27.53;25.45;98994.31;5032857;28;20064;-83
2022/05/21 10:13:26;;;;;;;0.00;0.00;;;;;;;27.57;25.38;98997.84;5031546;28;20029;-83
2022/05/21 10:15:59;;;;;;;0.35;0.10;;;;;;;27.61;25.87;98993.16;5031673;28;20036;-83
2022/05/21 10:18:37;;;;;;;0.00;0.00;;;;;;;27.70;26.97;98986.47;5031268;28;20128;-83
2022/05/21 10:21:30;;;;;;;0.00;0.00;;;;;;;27.53;27.90;98991.56;5031457;28;20033;-83
2022/05/21 10:24:03;;;;;;;0.00;0.00;;;;;;;27.63;28.33;98990.78;5031259;28;20519;-84
2022/05/21 10:26:48;;;;;;;0.00;0.00;;;;;;;27.70;28.68;98983.72;5031134;28;20026;-83
2022/05/21 10:29:16;;;;;;;0.00;0.00;;;;;;;27.76;28.52;98977.44;5031310;28;20029;-83
2022/05/21 10:31:52;;;;;;;0.00;0.00;;;;;;;27.86;28.56;98978.59;5031265;28;20083;-83
2022/05/21 10:34:59;;;;;;;0.00;0.00;;;;;;;27.98;29.34;98982.91;5030837;28;20049;-84
2022/05/21 10:37:48;;;;;;;0.15;0.15;;;;;;;28.08;26.49;98982.09;5013130;28;20060;-83
2022/05/21 10:40:25;;;;;;;0.00;0.00;;;;;;;28.12;26.36;98976.59;5012986;28;20037;-84
2022/05/21 10:43:12;;;;;;;0.00;0.00;;;;;;;28.18;26.85;98974.25;5024948;28;20038;-84
2022/05/21 10:45:45;;;;;;;0.00;0.00;;;;;;;28.21;25.74;98966.00;5031219;28;20046;-85
2022/05/21 10:48:36;;;;;;;0.00;0.00;;;;;;;28.29;26.57;98969.47;5031018;28;20120;-84
2022/05/21 10:51:26;;;;;;;0.00;0.00;;;;;;;28.33;25.20;98966.72;5031129;28;20470;-84
2022/05/21 10:54:16;;;;;;;0.00;0.00;;;;;;;28.36;26.26;98961.22;5031024;28;20033;-84
2022/05/21 10:56:41;;;;;;;0.00;0.00;;;;;;;28.43;25.66;98965.91;5030824;28;20025;-84
2022/05/21 10:59:55;;;;;;;0.00;0.00;;;;;;;28.47;25.41;98960.41;5030526;28;20029;-84
2022/05/21 11:02:45;;;;;;;0.00;0.00;;;;;;;28.52;26.30;98966.25;5030420;28;20030;-84
2022/05/21 11:05:26;;;;;;;0.00;0.00;;;;;;;28.52;26.24;98949.75;5030623;28;20129;-84
2022/05/21 11:07:57;;;;;;;0.00;0.00;;;;;;;28.58;25.33;98952.88;5030575;28;20033;-84
2022/05/21 11:10:25;;;;;;;0.00;0.00;;;;;;;28.60;25.55;98947.78;5030451;28;20087;-84
2022/05/21 11:12:57;;;;;;;0.00;0.00;;;;;;;28.60;25.73;98942.25;5030815;28;20037;-85
2022/05/21 11:15:35;;;;;;;0.00;0.00;;;;;;;28.61;25.52;98952.06;5030307;28;20414;-85
2022/05/21 11:18:17;;;;;;;0.00;0.00;;;;;;;28.69;25.78;98950.09;5030555;28;20025;-84
2022/05/21 11:21:16;;;;;;;0.10;0.10;;;;;;;28.73;26.17;98942.59;5030618;28;20034;-83
2022/05/21 11:24:02;;;;;;;0.00;0.00;;;;;;;28.77;26.34;98937.84;5030685;28;20026;-83
2022/05/21 11:26:51;;;;;;;0.00;0.00;;;;;;;28.83;26.05;98932.72;5030264;28;20035;-83
2022/05/21 11:29:39;;;;;;;0.00;0.00;;;;;;;28.88;25.51;98932.28;5030112;28;20033;-83
2022/05/21 11:37:51;;;;;;;0.00;0.00;;;;;;;28.97;24.98;98926.34;5031610;28;20036;-82
2022/05/21 11:44:55;;;;;;;0.00;0.00;;;;;;;28.98;24.18;98912.19;5031602;28;20416;-84
2022/05/21 11:46:49;;;;;;;0.10;0.10;;;;;;;28.94;24.08;98900.38;5030884;28;20079;-84
2022/05/21 11:49:27;;;;;;;0.00;0.00;;;;;;;28.96;22.99;98908.25;5029832;28;20025;-84
2022/05/21 11:51:58;;;;;;;0.00;0.00;;;;;;;28.96;23.20;98903.53;5029913;28;20048;-84
2022/05/21 11:54:45;;;;;;;0.00;0.00;;;;;;;28.95;23.68;98901.97;5029671;28;20021;-84
2022/05/21 11:57:11;;;;;;;0.00;0.00;;;;;;;28.96;24.17;98894.50;5029751;28;20127;-84
2022/05/21 11:59:53;;;;;;;0.38;0.32;;;;;;;29.03;23.96;98902.72;5029951;28;20315;-83
2022/05/21 12:02:22;;;;;;;0.00;0.00;;;;;;;28.97;22.81;98890.56;5029778;28;20040;-83
2022/05/21 12:04:52;;;;;;;0.00;0.00;;;;;;;28.97;23.18;98896.06;5029903;28;20473;-84
2022/05/21 12:07:46;;;;;;;0.00;0.00;;;;;;;29.00;23.65;98889.75;5029548;28;20041;-84
2022/05/21 12:10:24;;;;;;;0.20;0.20;;;;;;;29.01;23.42;98878.31;5030946;28;20268;-84
2022/05/21 12:13:03;;;;;;;0.00;0.00;;;;;;;28.98;22.66;98886.59;5029813;28;20064;-84
2022/05/21 12:15:43;;;;;;;0.00;0.00;;;;;;;29.01;22.89;98877.56;5029375;28;20025;-84
2022/05/21 12:18:31;;;;;;;0.00;0.00;;;;;;;29.05;24.06;98876.34;5029613;28;20033;-84